sensor_id;sensor_type;location;lat;lon;timestamp;pressure;altitude;pressure_sealevel;temperature;humidity
3598;BME280;1813;52.016;8.714;2022-07-22T00:01:10;-16261.94;;;-139.71;94.79
3598;BME280;1813;52.016;8.714;2022-07-22T00:03:42;-16261.94;;;-139.71;94.88
3598;BME280;1813;52.016;8.714;2022-07-22T00:06:14;-16261.94;;;-139.71;94.89
3598;BME280;1813;52.016;8.714;2022-07-22T00:08:46;-16261.94;;;-139.71;94.98
3598;BME280;1813;52.016;8.714;2022-07-22T00:11:18;-16261.94;;;-139.71;94.94
3598;BME280;1813;52.016;8.714;2022-07-22T00:13:52;-16261.94;;;-139.71;94.95
3598;BME280;1813;52.016;8.714;2022-07-22T00:16:24;-16261.94;;;-139.71;95.17
3598;BME280;1813;52.016;8.714;2022-07-22T00:18:56;-16261.94;;;-139.71;95.14
3598;BME280;1813;52.016;8.714;2022-07-22T00:21:28;-16261.94;;;-139.71;95.23
3598;BME280;1813;52.016;8.714;2022-07-22T00:24:00;-16261.94;;;-139.71;95.32
3598;BME280;1813;52.016;8.714;2022-07-22T00:26:32;-16261.94;;;-139.71;95.32
3598;BME280;1813;52.016;8.714;2022-07-22T00:29:06;-16261.94;;;-139.71;95.42
3598;BME280;1813;52.016;8.714;2022-07-22T00:31:38;-16261.94;;;-139.71;95.51
3598;BME280;1813;52.016;8.714;2022-07-22T00:34:10;-16261.94;;;-139.71;95.34
3598;BME280;1813;52.016;8.714;2022-07-22T00:36:42;-16261.94;;;-139.71;95.08
3598;BME280;1813;52.016;8.714;2022-07-22T00:39:14;-16261.94;;;-139.71;94.73
3598;BME280;1813;52.016;8.714;2022-07-22T00:41:47;-16261.94;;;-139.71;94.15
3598;BME280;1813;52.016;8.714;2022-07-22T00:44:21;-16261.94;;;-139.71;93.60
3598;BME280;1813;52.016;8.714;2022-07-22T00:46:53;-16261.94;;;-139.71;93.13
3598;BME280;1813;52.016;8.714;2022-07-22T00:49:25;-16261.94;;;-139.71;92.77
3598;BME280;1813;52.016;8.714;2022-07-22T00:51:57;-16261.94;;;-139.71;92.31
3598;BME280;1813;52.016;8.714;2022-07-22T00:54:29;-16261.94;;;-139.71;91.96
3598;BME280;1813;52.016;8.714;2022-07-22T00:57:01;-16261.94;;;-139.71;91.68
3598;BME280;1813;52.016;8.714;2022-07-22T00:59:35;-16261.94;;;-139.71;91.57
3598;BME280;1813;52.016;8.714;2022-07-22T01:02:07;-16261.94;;;-139.71;91.31
3598;BME280;1813;52.016;8.714;2022-07-22T01:04:39;-16261.94;;;-139.71;91.25
3598;BME280;1813;52.016;8.714;2022-07-22T01:07:11;-16261.94;;;-139.71;91.14
3598;BME280;1813;52.016;8.714;2022-07-22T01:09:43;-16261.94;;;-139.71;90.91
3598;BME280;1813;52.016;8.714;2022-07-22T01:12:16;-16261.94;;;-139.71;90.46
3598;BME280;1813;52.016;8.714;2022-07-22T01:14:49;-16261.94;;;-139.71;90.29
3598;BME280;1813;52.016;8.714;2022-07-22T01:17:21;-16261.94;;;-139.71;90.16
3598;BME280;1813;52.016;8.714;2022-07-22T01:19:58;-16261.94;;;-139.71;89.82
3598;BME280;1813;52.016;8.714;2022-07-22T01:22:31;-16261.94;;;-139.71;89.89
3598;BME280;1813;52.016;8.714;2022-07-22T01:25:03;-16261.94;;;-139.71;89.69
3598;BME280;1813;52.016;8.714;2022-07-22T01:27:37;-16261.94;;;-139.71;89.59
3598;BME280;1813;52.016;8.714;2022-07-22T01:30:10;-16261.94;;;-139.71;89.54
3598;BME280;1813;52.016;8.714;2022-07-22T01:32:42;-16261.94;;;-139.71;89.61
3598;BME280;1813;52.016;8.714;2022-07-22T01:35:16;-16261.94;;;-139.71;89.65
3598;BME280;1813;52.016;8.714;2022-07-22T01:37:48;-16261.94;;;-139.71;89.62
3598;BME280;1813;52.016;8.714;2022-07-22T01:40:20;-16261.94;;;-139.71;89.35
3598;BME280;1813;52.016;8.714;2022-07-22T01:42:52;-16261.94;;;-139.71;89.11
3598;BME280;1813;52.016;8.714;2022-07-22T01:45:24;-16261.94;;;-139.71;88.81
3598;BME280;1813;52.016;8.714;2022-07-22T01:47:56;-16261.94;;;-139.71;88.75
3598;BME280;1813;52.016;8.714;2022-07-22T01:50:31;-16261.94;;;-139.71;88.57
3598;BME280;1813;52.016;8.714;2022-07-22T01:53:03;-16261.94;;;-139.71;88.92
3598;BME280;1813;52.016;8.714;2022-07-22T01:55:35;-16261.94;;;-139.71;88.88
3598;BME280;1813;52.016;8.714;2022-07-22T01:58:07;-16261.94;;;-139.71;88.53
3598;BME280;1813;52.016;8.714;2022-07-22T02:00:40;-16261.94;;;-139.71;88.56
3598;BME280;1813;52.016;8.714;2022-07-22T02:03:12;-16261.94;;;-139.71;88.57
3598;BME280;1813;52.016;8.714;2022-07-22T02:05:46;-16261.94;;;-139.71;88.55
3598;BME280;1813;52.016;8.714;2022-07-22T02:08:25;-16261.94;;;-139.71;88.78
3598;BME280;1813;52.016;8.714;2022-07-22T02:11:18;-16261.94;;;-139.71;88.52
3598;BME280;1813;52.016;8.714;2022-07-22T02:13:57;-16261.94;;;-139.71;88.37
3598;BME280;1813;52.016;8.714;2022-07-22T02:16:32;-16261.94;;;-139.71;88.54
3598;BME280;1813;52.016;8.714;2022-07-22T02:19:04;-16261.94;;;-139.71;88.52
3598;BME280;1813;52.016;8.714;2022-07-22T02:21:37;-16261.94;;;-139.71;88.35
3598;BME280;1813;52.016;8.714;2022-07-22T02:24:09;-16261.94;;;-139.71;88.62
3598;BME280;1813;52.016;8.714;2022-07-22T02:26:41;-16261.94;;;-139.71;88.66
3598;BME280;1813;52.016;8.714;2022-07-22T02:29:17;-16261.94;;;-139.71;88.67
3598;BME280;1813;52.016;8.714;2022-07-22T02:31:50;-16261.94;;;-139.71;88.67
3598;BME280;1813;52.016;8.714;2022-07-22T02:34:25;-16261.94;;;-139.71;88.63
3598;BME280;1813;52.016;8.714;2022-07-22T02:36:59;-16261.94;;;-139.71;88.01
3598;BME280;1813;52.016;8.714;2022-07-22T02:39:32;-16261.94;;;-139.71;88.10
3598;BME280;1813;52.016;8.714;2022-07-22T02:42:04;-16261.94;;;-139.71;87.90
3598;BME280;1813;52.016;8.714;2022-07-22T02:44:36;-16261.94;;;-139.71;87.74
3598;BME280;1813;52.016;8.714;2022-07-22T02:47:08;-16261.94;;;-139.71;87.79
3598;BME280;1813;52.016;8.714;2022-07-22T02:49:40;-16261.94;;;-139.71;87.85
3598;BME280;1813;52.016;8.714;2022-07-22T02:52:14;-16261.94;;;-139.71;87.74
3598;BME280;1813;52.016;8.714;2022-07-22T02:54:46;-16261.94;;;-139.71;87.52
3598;BME280;1813;52.016;8.714;2022-07-22T02:57:19;-16261.94;;;-139.71;87.67
3598;BME280;1813;52.016;8.714;2022-07-22T02:59:51;-16261.94;;;-139.71;87.53
3598;BME280;1813;52.016;8.714;2022-07-22T03:02:23;-16261.94;;;-139.71;87.50
3598;BME280;1813;52.016;8.714;2022-07-22T03:04:55;-16261.94;;;-139.71;87.28
3598;BME280;1813;52.016;8.714;2022-07-22T03:07:29;-16261.94;;;-139.71;87.21
3598;BME280;1813;52.016;8.714;2022-07-22T03:10:02;-16261.94;;;-139.71;87.40
3598;BME280;1813;52.016;8.714;2022-07-22T03:12:36;-16261.94;;;-139.71;87.41
3598;BME280;1813;52.016;8.714;2022-07-22T03:15:09;-16261.94;;;-139.71;87.34
3598;BME280;1813;52.016;8.714;2022-07-22T03:17:41;-16261.94;;;-139.71;87.12
3598;BME280;1813;52.016;8.714;2022-07-22T03:20:13;-16261.94;;;-139.71;86.76
3598;BME280;1813;52.016;8.714;2022-07-22T03:22:46;-16261.94;;;-139.71;86.54
3598;BME280;1813;52.016;8.714;2022-07-22T03:25:18;-16261.94;;;-139.71;86.11
3598;BME280;1813;52.016;8.714;2022-07-22T03:27:50;-16261.94;;;-139.71;85.53
3598;BME280;1813;52.016;8.714;2022-07-22T03:30:23;-16261.94;;;-139.71;85.42
3598;BME280;1813;52.016;8.714;2022-07-22T03:32:55;-16261.94;;;-139.71;85.29
3598;BME280;1813;52.016;8.714;2022-07-22T03:35:27;-16261.94;;;-139.71;85.13
3598;BME280;1813;52.016;8.714;2022-07-22T03:38:01;-16261.94;;;-139.71;85.31
3598;BME280;1813;52.016;8.714;2022-07-22T03:40:34;-16261.94;;;-139.71;85.40
3598;BME280;1813;52.016;8.714;2022-07-22T03:43:07;-16261.94;;;-139.71;85.25
3598;BME280;1813;52.016;8.714;2022-07-22T03:45:39;-16261.94;;;-139.71;85.30
3598;BME280;1813;52.016;8.714;2022-07-22T03:48:14;-16261.94;;;-139.71;85.30
3598;BME280;1813;52.016;8.714;2022-07-22T03:50:47;-16261.94;;;-139.71;85.26
3598;BME280;1813;52.016;8.714;2022-07-22T03:53:21;-16261.94;;;-139.71;84.99
3598;BME280;1813;52.016;8.714;2022-07-22T03:55:54;-16261.94;;;-139.71;85.09
3598;BME280;1813;52.016;8.714;2022-07-22T03:58:26;-16261.94;;;-139.71;85.37
3598;BME280;1813;52.016;8.714;2022-07-22T04:00:59;-16261.94;;;-139.71;85.82
3598;BME280;1813;52.016;8.714;2022-07-22T04:03:31;-16261.94;;;-139.71;85.92
3598;BME280;1813;52.016;8.714;2022-07-22T04:06:19;-16261.94;;;-139.71;86.26
3598;BME280;1813;52.016;8.714;2022-07-22T04:08:57;-16261.94;;;-139.71;85.91
3598;BME280;1813;52.016;8.714;2022-07-22T04:11:29;-16261.94;;;-139.71;85.22
3598;BME280;1813;52.016;8.714;2022-07-22T04:14:01;-16261.94;;;-139.71;84.72
3598;BME280;1813;52.016;8.714;2022-07-22T04:16:33;-16261.94;;;-139.71;84.67
3598;BME280;1813;52.016;8.714;2022-07-22T04:19:12;-16261.94;;;-139.71;84.80
3598;BME280;1813;52.016;8.714;2022-07-22T04:21:58;-16261.94;;;-139.71;84.73
3598;BME280;1813;52.016;8.714;2022-07-22T04:24:34;-16261.94;;;-139.71;84.21
3598;BME280;1813;52.016;8.714;2022-07-22T04:27:06;-16261.94;;;-139.71;83.74
3598;BME280;1813;52.016;8.714;2022-07-22T04:29:40;-16261.94;;;-139.71;83.57
3598;BME280;1813;52.016;8.714;2022-07-22T04:32:12;-16261.94;;;-139.71;84.01
3598;BME280;1813;52.016;8.714;2022-07-22T04:34:45;-16261.94;;;-139.71;84.24
3598;BME280;1813;52.016;8.714;2022-07-22T04:37:18;-16261.94;;;-139.71;84.21
3598;BME280;1813;52.016;8.714;2022-07-22T04:39:51;-16261.94;;;-139.71;84.05
3598;BME280;1813;52.016;8.714;2022-07-22T04:42:23;-16261.94;;;-139.71;83.86
3598;BME280;1813;52.016;8.714;2022-07-22T04:44:55;-16261.94;;;-139.71;84.17
3598;BME280;1813;52.016;8.714;2022-07-22T04:47:27;-16261.94;;;-139.71;84.34
3598;BME280;1813;52.016;8.714;2022-07-22T04:49:59;-16261.94;;;-139.71;84.30
3598;BME280;1813;52.016;8.714;2022-07-22T04:52:32;-16261.94;;;-139.71;84.60
3598;BME280;1813;52.016;8.714;2022-07-22T04:55:07;-16261.94;;;-139.71;84.12
3598;BME280;1813;52.016;8.714;2022-07-22T04:57:39;-16261.94;;;-139.71;84.04
3598;BME280;1813;52.016;8.714;2022-07-22T05:00:12;-16261.94;;;-139.71;84.16
3598;BME280;1813;52.016;8.714;2022-07-22T05:02:52;-16261.94;;;-139.71;84.14
3598;BME280;1813;52.016;8.714;2022-07-22T05:05:25;-16261.94;;;-139.71;83.83
3598;BME280;1813;52.016;8.714;2022-07-22T05:07:57;-16261.94;;;-139.71;84.34
3598;BME280;1813;52.016;8.714;2022-07-22T05:10:33;-16261.94;;;-139.71;84.33
3598;BME280;1813;52.016;8.714;2022-07-22T05:13:05;-16261.94;;;-139.71;84.34
3598;BME280;1813;52.016;8.714;2022-07-22T05:15:38;-16261.94;;;-139.71;84.16
3598;BME280;1813;52.016;8.714;2022-07-22T05:18:10;-16261.94;;;-139.71;83.71
3598;BME280;1813;52.016;8.714;2022-07-22T05:20:42;-16261.94;;;-139.71;83.72
3598;BME280;1813;52.016;8.714;2022-07-22T05:23:14;-16261.94;;;-139.71;83.74
3598;BME280;1813;52.016;8.714;2022-07-22T05:25:48;-16261.94;;;-139.71;83.21
3598;BME280;1813;52.016;8.714;2022-07-22T05:28:20;-16261.94;;;-139.71;83.07
3598;BME280;1813;52.016;8.714;2022-07-22T05:30:53;-16261.94;;;-139.71;83.13
3598;BME280;1813;52.016;8.714;2022-07-22T05:33:29;-16261.94;;;-139.71;82.77
3598;BME280;1813;52.016;8.714;2022-07-22T05:36:09;-16261.94;;;-139.71;82.55
3598;BME280;1813;52.016;8.714;2022-07-22T05:38:48;-16261.94;;;-139.71;81.60
3598;BME280;1813;52.016;8.714;2022-07-22T05:41:22;-16261.94;;;-139.71;81.53
3598;BME280;1813;52.016;8.714;2022-07-22T05:43:56;-16261.94;;;-139.71;81.61
3598;BME280;1813;52.016;8.714;2022-07-22T05:46:28;-16261.94;;;-139.71;81.30
3598;BME280;1813;52.016;8.714;2022-07-22T05:49:00;-16261.94;;;-139.71;81.25
3598;BME280;1813;52.016;8.714;2022-07-22T05:51:37;-16261.94;;;-139.71;81.72
3598;BME280;1813;52.016;8.714;2022-07-22T05:54:09;-16261.94;;;-139.71;81.84
3598;BME280;1813;52.016;8.714;2022-07-22T05:56:42;-16261.94;;;-139.71;81.91
3598;BME280;1813;52.016;8.714;2022-07-22T05:59:14;-16261.94;;;-139.71;82.24
3598;BME280;1813;52.016;8.714;2022-07-22T06:01:47;-16261.94;;;-139.71;81.54
3598;BME280;1813;52.016;8.714;2022-07-22T06:04:39;-16261.94;;;-139.71;82.00
3598;BME280;1813;52.016;8.714;2022-07-22T06:07:12;-16261.94;;;-139.71;81.57
3598;BME280;1813;52.016;8.714;2022-07-22T06:09:46;-16261.94;;;-139.71;81.36
3598;BME280;1813;52.016;8.714;2022-07-22T06:12:20;-16261.94;;;-139.71;81.82
3598;BME280;1813;52.016;8.714;2022-07-22T06:14:52;-16261.94;;;-139.71;82.15
3598;BME280;1813;52.016;8.714;2022-07-22T06:17:24;-16261.94;;;-139.71;81.84
3598;BME280;1813;52.016;8.714;2022-07-22T06:19:58;-16261.94;;;-139.71;81.74
3598;BME280;1813;52.016;8.714;2022-07-22T06:22:30;-16261.94;;;-139.71;81.39
3598;BME280;1813;52.016;8.714;2022-07-22T06:25:02;-16261.94;;;-139.71;81.50
3598;BME280;1813;52.016;8.714;2022-07-22T06:27:36;-16261.94;;;-139.71;81.37
3598;BME280;1813;52.016;8.714;2022-07-22T06:30:11;-16261.94;;;-139.71;81.73
3598;BME280;1813;52.016;8.714;2022-07-22T06:32:43;-16261.94;;;-139.71;81.92
3598;BME280;1813;52.016;8.714;2022-07-22T06:35:15;-16261.94;;;-139.71;82.11
3598;BME280;1813;52.016;8.714;2022-07-22T06:37:48;-16261.94;;;-139.71;82.51
3598;BME280;1813;52.016;8.714;2022-07-22T06:40:20;-16261.94;;;-139.71;83.03
3598;BME280;1813;52.016;8.714;2022-07-22T06:43:04;-16261.94;;;-139.71;82.26
3598;BME280;1813;52.016;8.714;2022-07-22T06:45:56;-16261.94;;;-139.71;81.49
3598;BME280;1813;52.016;8.714;2022-07-22T06:48:36;-16261.94;;;-139.71;81.29
3598;BME280;1813;52.016;8.714;2022-07-22T06:51:08;-16261.94;;;-139.71;81.15
3598;BME280;1813;52.016;8.714;2022-07-22T06:53:40;-16261.94;;;-139.71;81.34
3598;BME280;1813;52.016;8.714;2022-07-22T06:56:13;-16261.94;;;-139.71;81.40
3598;BME280;1813;52.016;8.714;2022-07-22T06:58:47;-16261.94;;;-139.71;81.32
3598;BME280;1813;52.016;8.714;2022-07-22T07:01:19;-16261.94;;;-139.71;81.48
3598;BME280;1813;52.016;8.714;2022-07-22T07:03:57;-16261.94;;;-139.71;81.58
3598;BME280;1813;52.016;8.714;2022-07-22T07:06:29;-16261.94;;;-139.71;81.29
3598;BME280;1813;52.016;8.714;2022-07-22T07:09:08;-16261.94;;;-139.71;81.55
3598;BME280;1813;52.016;8.714;2022-07-22T07:11:41;-16261.94;;;-139.71;81.66
3598;BME280;1813;52.016;8.714;2022-07-22T07:14:22;-16261.94;;;-139.71;81.72
3598;BME280;1813;52.016;8.714;2022-07-22T07:16:54;-16261.94;;;-139.71;81.48
3598;BME280;1813;52.016;8.714;2022-07-22T07:19:26;-16261.94;;;-139.71;81.27
3598;BME280;1813;52.016;8.714;2022-07-22T07:21:58;-16261.94;;;-139.71;81.77
3598;BME280;1813;52.016;8.714;2022-07-22T07:24:30;-16261.94;;;-139.71;81.34
3598;BME280;1813;52.016;8.714;2022-07-22T07:27:02;-16261.94;;;-139.71;80.97
3598;BME280;1813;52.016;8.714;2022-07-22T07:29:36;-16261.94;;;-139.71;81.13
3598;BME280;1813;52.016;8.714;2022-07-22T07:32:08;-16261.94;;;-139.71;81.25
3598;BME280;1813;52.016;8.714;2022-07-22T07:34:40;-16261.94;;;-139.71;80.50
3598;BME280;1813;52.016;8.714;2022-07-22T07:37:12;-16261.94;;;-139.71;79.85
3598;BME280;1813;52.016;8.714;2022-07-22T07:39:44;-16261.94;;;-139.71;80.00
3598;BME280;1813;52.016;8.714;2022-07-22T07:42:16;-16261.94;;;-139.71;79.48
3598;BME280;1813;52.016;8.714;2022-07-22T07:44:49;-16261.94;;;-139.71;78.72
3598;BME280;1813;52.016;8.714;2022-07-22T07:47:22;-16261.94;;;-139.71;78.45
3598;BME280;1813;52.016;8.714;2022-07-22T07:49:54;-16261.94;;;-139.71;78.81
3598;BME280;1813;52.016;8.714;2022-07-22T07:52:28;-16261.94;;;-139.71;78.98
3598;BME280;1813;52.016;8.714;2022-07-22T07:55:00;-16261.94;;;-139.71;79.60
3598;BME280;1813;52.016;8.714;2022-07-22T07:57:32;-16261.94;;;-139.71;79.83
3598;BME280;1813;52.016;8.714;2022-07-22T08:00:10;-16261.94;;;-139.71;80.99
3598;BME280;1813;52.016;8.714;2022-07-22T08:02:46;-16261.94;;;-139.71;81.41
3598;BME280;1813;52.016;8.714;2022-07-22T08:05:19;-16261.94;;;-139.71;81.68
3598;BME280;1813;52.016;8.714;2022-07-22T08:07:52;-16261.94;;;-139.71;82.02
3598;BME280;1813;52.016;8.714;2022-07-22T08:10:25;-16261.94;;;-139.71;82.00
3598;BME280;1813;52.016;8.714;2022-07-22T08:13:15;-16261.94;;;-139.71;81.66
3598;BME280;1813;52.016;8.714;2022-07-22T08:15:56;-16261.94;;;-139.71;81.54
3598;BME280;1813;52.016;8.714;2022-07-22T08:18:30;-16261.94;;;-139.71;81.17
3598;BME280;1813;52.016;8.714;2022-07-22T08:21:02;-16261.94;;;-139.71;80.61
3598;BME280;1813;52.016;8.714;2022-07-22T08:23:54;-16261.94;;;-139.71;80.45
3598;BME280;1813;52.016;8.714;2022-07-22T08:26:28;-16261.94;;;-139.71;80.10
3598;BME280;1813;52.016;8.714;2022-07-22T08:29:00;-16261.94;;;-139.71;80.09
3598;BME280;1813;52.016;8.714;2022-07-22T08:31:34;-16261.94;;;-139.71;79.74
3598;BME280;1813;52.016;8.714;2022-07-22T08:34:10;-16261.94;;;-139.71;79.90
3598;BME280;1813;52.016;8.714;2022-07-22T08:36:42;-16261.94;;;-139.71;79.42
3598;BME280;1813;52.016;8.714;2022-07-22T08:39:16;-16261.94;;;-139.71;79.71
3598;BME280;1813;52.016;8.714;2022-07-22T08:41:49;-16261.94;;;-139.71;78.31
3598;BME280;1813;52.016;8.714;2022-07-22T08:44:22;-16261.94;;;-139.71;77.44
3598;BME280;1813;52.016;8.714;2022-07-22T08:46:56;-16261.94;;;-139.71;77.22
3598;BME280;1813;52.016;8.714;2022-07-22T08:49:48;-16261.94;;;-139.71;76.29
3598;BME280;1813;52.016;8.714;2022-07-22T08:52:35;-16261.94;;;-139.71;77.26
3598;BME280;1813;52.016;8.714;2022-07-22T08:55:08;-16261.94;;;-139.71;76.27
3598;BME280;1813;52.016;8.714;2022-07-22T08:57:44;-16261.94;;;-139.71;76.78
3598;BME280;1813;52.016;8.714;2022-07-22T09:00:18;-16261.94;;;-139.71;77.30
3598;BME280;1813;52.016;8.714;2022-07-22T09:02:52;-16261.94;;;-139.71;77.57
3598;BME280;1813;52.016;8.714;2022-07-22T09:05:32;-16261.94;;;-139.71;77.03
3598;BME280;1813;52.016;8.714;2022-07-22T09:08:05;-16261.94;;;-139.71;77.61
3598;BME280;1813;52.016;8.714;2022-07-22T09:10:53;-16261.94;;;-139.71;77.89
3598;BME280;1813;52.016;8.714;2022-07-22T09:14:01;-16261.94;;;-139.71;77.79
3598;BME280;1813;52.016;8.714;2022-07-22T09:16:51;-16261.94;;;-139.71;78.04
3598;BME280;1813;52.016;8.714;2022-07-22T09:19:48;-16261.94;;;-139.71;79.52
3598;BME280;1813;52.016;8.714;2022-07-22T09:22:43;-16261.94;;;-139.71;78.81
3598;BME280;1813;52.016;8.714;2022-07-22T09:25:27;-16261.94;;;-139.71;76.52
3598;BME280;1813;52.016;8.714;2022-07-22T09:28:22;-16261.94;;;-139.71;77.56
3598;BME280;1813;52.016;8.714;2022-07-22T09:31:23;-16261.94;;;-139.71;77.37
3598;BME280;1813;52.016;8.714;2022-07-22T09:33:58;-16261.94;;;-139.71;77.39
3598;BME280;1813;52.016;8.714;2022-07-22T09:36:55;-16261.94;;;-139.71;77.20
3598;BME280;1813;52.016;8.714;2022-07-22T09:39:31;-16261.94;;;-139.71;75.06
3598;BME280;1813;52.016;8.714;2022-07-22T09:42:06;-16261.94;;;-139.71;73.54
3598;BME280;1813;52.016;8.714;2022-07-22T09:44:38;-16261.94;;;-139.71;74.56
3598;BME280;1813;52.016;8.714;2022-07-22T09:47:29;-16261.94;;;-139.71;74.42
3598;BME280;1813;52.016;8.714;2022-07-22T09:50:23;-16261.94;;;-139.71;75.30
3598;BME280;1813;52.016;8.714;2022-07-22T09:53:16;-16261.94;;;-139.71;74.87
3598;BME280;1813;52.016;8.714;2022-07-22T09:56:04;-16261.94;;;-139.71;72.87
3598;BME280;1813;52.016;8.714;2022-07-22T09:58:38;-16261.94;;;-139.71;72.97
3598;BME280;1813;52.016;8.714;2022-07-22T10:01:17;-16261.94;;;-139.71;72.42
3598;BME280;1813;52.016;8.714;2022-07-22T10:03:51;-16261.94;;;-139.71;72.70
3598;BME280;1813;52.016;8.714;2022-07-22T10:06:25;-16261.94;;;-139.71;73.30
3598;BME280;1813;52.016;8.714;2022-07-22T10:08:59;-16261.94;;;-139.71;72.77
3598;BME280;1813;52.016;8.714;2022-07-22T10:11:31;-16261.94;;;-139.71;71.22
3598;BME280;1813;52.016;8.714;2022-07-22T10:14:03;-16261.94;;;-139.71;70.86
3598;BME280;1813;52.016;8.714;2022-07-22T10:16:36;-16261.94;;;-139.71;70.58
3598;BME280;1813;52.016;8.714;2022-07-22T10:19:08;-16261.94;;;-139.71;71.10
3598;BME280;1813;52.016;8.714;2022-07-22T10:21:40;-16261.94;;;-139.71;70.70
3598;BME280;1813;52.016;8.714;2022-07-22T10:24:16;-16261.94;;;-139.71;69.31
3598;BME280;1813;52.016;8.714;2022-07-22T10:27:00;-16261.94;;;-139.71;68.84
3598;BME280;1813;52.016;8.714;2022-07-22T10:29:38;-16261.94;;;-139.71;68.48
3598;BME280;1813;52.016;8.714;2022-07-22T10:32:23;-16261.94;;;-139.71;69.07
3598;BME280;1813;52.016;8.714;2022-07-22T10:35:24;-16261.94;;;-139.71;69.70
3598;BME280;1813;52.016;8.714;2022-07-22T10:38:02;-16261.94;;;-139.71;69.87
3598;BME280;1813;52.016;8.714;2022-07-22T10:40:51;-16261.94;;;-139.71;70.82
3598;BME280;1813;52.016;8.714;2022-07-22T10:43:25;-16261.94;;;-139.71;69.97
3598;BME280;1813;52.016;8.714;2022-07-22T10:45:58;-16261.94;;;-139.71;69.75
3598;BME280;1813;52.016;8.714;2022-07-22T10:48:45;-16261.94;;;-139.71;71.22
3598;BME280;1813;52.016;8.714;2022-07-22T10:51:19;-16261.94;;;-139.71;70.34
3598;BME280;1813;52.016;8.714;2022-07-22T10:53:54;-16261.94;;;-139.71;69.72
3598;BME280;1813;52.016;8.714;2022-07-22T10:56:28;-16261.94;;;-139.71;70.05
3598;BME280;1813;52.016;8.714;2022-07-22T10:59:11;-16261.94;;;-139.71;70.10
3598;BME280;1813;52.016;8.714;2022-07-22T11:01:46;-16261.94;;;-139.71;70.53
3598;BME280;1813;52.016;8.714;2022-07-22T11:04:19;-16261.94;;;-139.71;70.43
3598;BME280;1813;52.016;8.714;2022-07-22T11:06:53;-16261.94;;;-139.71;70.06
3598;BME280;1813;52.016;8.714;2022-07-22T11:09:32;-16261.94;;;-139.71;68.93
3598;BME280;1813;52.016;8.714;2022-07-22T11:12:12;-16261.94;;;-139.71;67.02
3598;BME280;1813;52.016;8.714;2022-07-22T11:14:44;-16261.94;;;-139.71;66.85
3598;BME280;1813;52.016;8.714;2022-07-22T11:17:16;-16261.94;;;-139.71;67.13
3598;BME280;1813;52.016;8.714;2022-07-22T11:19:50;-16261.94;;;-139.71;67.13
3598;BME280;1813;52.016;8.714;2022-07-22T11:22:22;-16261.94;;;-139.71;67.63
3598;BME280;1813;52.016;8.714;2022-07-22T11:24:56;-16261.94;;;-139.71;67.37
3598;BME280;1813;52.016;8.714;2022-07-22T11:27:29;-16261.94;;;-139.71;67.98
3598;BME280;1813;52.016;8.714;2022-07-22T11:30:03;-16261.94;;;-139.71;67.97
3598;BME280;1813;52.016;8.714;2022-07-22T11:32:42;-16261.94;;;-139.71;68.21
3598;BME280;1813;52.016;8.714;2022-07-22T11:35:14;-16261.94;;;-139.71;68.00
3598;BME280;1813;52.016;8.714;2022-07-22T11:37:55;-16261.94;;;-139.71;68.47
3598;BME280;1813;52.016;8.714;2022-07-22T11:40:31;-16261.94;;;-139.71;67.75
3598;BME280;1813;52.016;8.714;2022-07-22T11:43:05;-16261.94;;;-139.71;68.53
3598;BME280;1813;52.016;8.714;2022-07-22T11:45:55;-16261.94;;;-139.71;67.72
3598;BME280;1813;52.016;8.714;2022-07-22T11:48:27;-16261.94;;;-139.71;67.89
3598;BME280;1813;52.016;8.714;2022-07-22T11:51:00;-16261.94;;;-139.71;67.45
3598;BME280;1813;52.016;8.714;2022-07-22T11:53:32;-16261.94;;;-139.71;67.02
3598;BME280;1813;52.016;8.714;2022-07-22T11:56:06;-16261.94;;;-139.71;67.23
3598;BME280;1813;52.016;8.714;2022-07-22T11:58:41;-16261.94;;;-139.71;67.53
3598;BME280;1813;52.016;8.714;2022-07-22T12:01:15;-16261.94;;;-139.71;66.98
3598;BME280;1813;52.016;8.714;2022-07-22T12:03:49;-16261.94;;;-139.71;66.23
3598;BME280;1813;52.016;8.714;2022-07-22T12:06:22;-16261.94;;;-139.71;65.05
3598;BME280;1813;52.016;8.714;2022-07-22T12:08:56;-16261.94;;;-139.71;65.40
3598;BME280;1813;52.016;8.714;2022-07-22T12:11:29;-16261.94;;;-139.71;65.01
3598;BME280;1813;52.016;8.714;2022-07-22T12:14:07;-16261.94;;;-139.71;65.13
3598;BME280;1813;52.016;8.714;2022-07-22T12:16:40;-16261.94;;;-139.71;65.52
3598;BME280;1813;52.016;8.714;2022-07-22T12:19:13;-16261.94;;;-139.71;64.35
3598;BME280;1813;52.016;8.714;2022-07-22T12:21:50;-16261.94;;;-139.71;64.55
3598;BME280;1813;52.016;8.714;2022-07-22T12:24:30;-16261.94;;;-139.71;65.03
3598;BME280;1813;52.016;8.714;2022-07-22T12:27:04;-16261.94;;;-139.71;64.42
3598;BME280;1813;52.016;8.714;2022-07-22T12:29:44;-16261.94;;;-139.71;63.78
3598;BME280;1813;52.016;8.714;2022-07-22T12:32:18;-16261.94;;;-139.71;64.10
3598;BME280;1813;52.016;8.714;2022-07-22T12:34:57;-16261.94;;;-139.71;63.59
3598;BME280;1813;52.016;8.714;2022-07-22T12:37:31;-16261.94;;;-139.71;63.55
3598;BME280;1813;52.016;8.714;2022-07-22T12:40:05;-16261.94;;;-139.71;63.54
3598;BME280;1813;52.016;8.714;2022-07-22T12:42:40;-16261.94;;;-139.71;62.97
3598;BME280;1813;52.016;8.714;2022-07-22T12:45:15;-16261.94;;;-139.71;62.89
3598;BME280;1813;52.016;8.714;2022-07-22T12:47:49;-16261.94;;;-139.71;62.95
3598;BME280;1813;52.016;8.714;2022-07-22T12:50:26;-16261.94;;;-139.71;61.12
3598;BME280;1813;52.016;8.714;2022-07-22T12:53:00;-16261.94;;;-139.71;62.35
3598;BME280;1813;52.016;8.714;2022-07-22T12:55:34;-16261.94;;;-139.71;61.74
3598;BME280;1813;52.016;8.714;2022-07-22T12:58:07;-16261.94;;;-139.71;60.84
3598;BME280;1813;52.016;8.714;2022-07-22T13:00:42;-16261.94;;;-139.71;62.86
3598;BME280;1813;52.016;8.714;2022-07-22T13:03:14;-16261.94;;;-139.71;62.76
3598;BME280;1813;52.016;8.714;2022-07-22T13:05:50;-16261.94;;;-139.71;61.72
3598;BME280;1813;52.016;8.714;2022-07-22T13:08:23;-16261.94;;;-139.71;62.04
3598;BME280;1813;52.016;8.714;2022-07-22T13:10:55;-16261.94;;;-139.71;62.10
3598;BME280;1813;52.016;8.714;2022-07-22T13:13:27;-16261.94;;;-139.71;61.95
3598;BME280;1813;52.016;8.714;2022-07-22T13:16:00;-16261.94;;;-139.71;61.04
3598;BME280;1813;52.016;8.714;2022-07-22T13:18:32;-16261.94;;;-139.71;62.00
3598;BME280;1813;52.016;8.714;2022-07-22T13:21:04;-16261.94;;;-139.71;62.79
3598;BME280;1813;52.016;8.714;2022-07-22T13:23:36;-16261.94;;;-139.71;62.86
3598;BME280;1813;52.016;8.714;2022-07-22T13:26:09;-16261.94;;;-139.71;62.83
3598;BME280;1813;52.016;8.714;2022-07-22T13:28:40;-16261.94;;;-139.71;63.28
3598;BME280;1813;52.016;8.714;2022-07-22T13:31:14;-16261.94;;;-139.71;62.48